createdAt,value
2019-02-07T00:01:37.971Z,96.20
2019-02-07T00:04:07.163Z,96.00
2019-02-07T00:06:36.444Z,96.00
2019-02-07T00:09:09.347Z,96.00
2019-02-07T00:11:38.783Z,96.10
2019-02-07T00:14:08.371Z,96.00
2019-02-07T00:16:37.788Z,96.00
2019-02-07T00:19:07.126Z,96.00
2019-02-07T00:21:36.489Z,96.00
2019-02-07T00:24:05.917Z,96.00
2019-02-07T00:26:35.264Z,96.20
2019-02-07T00:29:04.926Z,95.80
2019-02-07T00:31:36.806Z,95.90
2019-02-07T00:34:06.539Z,95.80
2019-02-07T00:36:35.910Z,96.10
2019-02-07T00:39:08.596Z,96.00
2019-02-07T00:41:38.167Z,96.40
2019-02-07T00:44:07.573Z,96.20
2019-02-07T00:46:36.902Z,96.20
2019-02-07T00:49:06.140Z,96.20
2019-02-07T00:51:35.455Z,96.20
2019-02-07T00:54:05.636Z,96.10
2019-02-07T00:56:35.952Z,96.20
2019-02-07T00:59:05.663Z,96.20
2019-02-07T01:01:34.982Z,96.20
2019-02-07T01:04:04.362Z,96.10
2019-02-07T01:06:33.680Z,95.90
2019-02-07T01:09:03.061Z,96.00
2019-02-07T01:11:32.295Z,95.90
2019-02-07T01:14:01.673Z,96.10
2019-02-07T01:16:31.095Z,96.10
2019-02-07T01:19:00.446Z,96.30
2019-02-07T01:21:29.703Z,96.20
2019-02-07T01:23:59.054Z,96.30
2019-02-07T01:26:28.385Z,96.40
2019-02-07T01:28:57.655Z,96.50
2019-02-07T01:31:26.963Z,96.60
2019-02-07T01:33:56.322Z,96.50
2019-02-07T01:36:25.637Z,96.40
2019-02-07T01:38:55.043Z,96.40
2019-02-07T01:41:24.383Z,96.50
2019-02-07T01:43:53.763Z,96.30
2019-02-07T01:46:23.091Z,96.30
2019-02-07T01:48:53.103Z,96.20
2019-02-07T01:51:22.438Z,96.20
2019-02-07T01:53:51.816Z,96.10
2019-02-07T01:56:21.144Z,96.00
2019-02-07T01:58:50.482Z,96.00
2019-02-07T02:01:19.775Z,96.00
2019-02-07T02:03:49.105Z,95.70
2019-02-07T02:06:18.524Z,95.90
2019-02-07T02:08:47.771Z,95.80
2019-02-07T02:11:17.126Z,96.00
2019-02-07T02:13:46.448Z,96.10
2019-02-07T02:16:15.804Z,96.20
2019-02-07T02:18:45.147Z,96.20
2019-02-07T02:21:14.492Z,96.40
2019-02-07T02:23:43.829Z,96.50
2019-02-07T02:26:13.287Z,96.70
2019-02-07T02:28:42.641Z,96.60
2019-02-07T02:31:12.025Z,96.80
2019-02-07T02:33:41.332Z,96.90
2019-02-07T02:36:10.584Z,96.90
2019-02-07T02:38:39.928Z,97.20
2019-02-07T02:41:09.568Z,96.70
2019-02-07T02:43:38.817Z,96.80
2019-02-07T02:46:08.158Z,96.80
2019-02-07T02:48:37.471Z,96.50
2019-02-07T02:51:06.856Z,96.90
2019-02-07T02:53:36.173Z,97.20
2019-02-07T02:56:06.342Z,97.10
2019-02-07T02:58:35.708Z,97.30
2019-02-07T03:01:27.045Z,97.50
2019-02-07T03:04:18.129Z,97.40
2019-02-07T03:07:05.461Z,97.60
2019-02-07T03:10:08.763Z,97.70
2019-02-07T03:13:02.988Z,97.60
2019-02-07T03:16:03.726Z,97.70
2019-02-07T03:19:00.429Z,97.90
2019-02-07T03:21:52.726Z,97.90
2019-02-07T03:24:56.134Z,98.10
2019-02-07T03:27:56.488Z,98.30
2019-02-07T03:30:45.166Z,98.50
2019-02-07T03:33:33.485Z,98.50
2019-02-07T03:36:27.613Z,98.50
2019-02-07T03:39:07.219Z,98.60
2019-02-07T03:41:54.851Z,98.90
2019-02-07T03:44:55.435Z,99.00
2019-02-07T03:47:43.735Z,98.80
2019-02-07T03:50:23.673Z,98.80
2019-02-07T03:53:21.080Z,98.80
2019-02-07T03:56:05.064Z,98.90
2019-02-07T03:58:53.359Z,99.00
2019-02-07T04:01:48.022Z,99.00
2019-02-07T04:04:39.283Z,99.20
2019-02-07T04:07:30.494Z,99.30
2019-02-07T04:10:22.042Z,99.20
2019-02-07T04:13:09.096Z,99.00
2019-02-07T04:15:49.730Z,98.60
2019-02-07T04:18:38.044Z,98.30
2019-02-07T04:21:18.429Z,98.70
2019-02-07T04:24:05.450Z,99.20
2019-02-07T04:26:50.215Z,99.40
2019-02-07T04:29:37.421Z,99.30
2019-02-07T04:32:31.985Z,99.30
2019-02-07T04:35:32.559Z,99.30
2019-02-07T04:38:19.754Z,99.40
2019-02-07T04:41:19.940Z,99.50
2019-02-07T04:44:08.240Z,99.20
2019-02-07T04:47:05.438Z,99.10
2019-02-07T04:50:00.448Z,98.70
2019-02-07T04:53:07.084Z,99.00
2019-02-07T04:56:10.747Z,99.10
2019-02-07T04:58:57.852Z,99.20
2019-02-07T05:01:52.258Z,99.30
2019-02-07T05:04:37.770Z,98.70
2019-02-07T05:07:44.040Z,98.80
2019-02-07T05:10:47.551Z,98.90
2019-02-07T05:13:28.295Z,98.90
2019-02-07T05:16:39.167Z,99.30
2019-02-07T05:19:30.947Z,99.30
2019-02-07T05:22:18.100Z,99.30
2019-02-07T05:24:57.263Z,99.10
2019-02-07T05:27:39.153Z,99.10
2019-02-07T05:30:35.931Z,99.10
2019-02-07T05:33:19.963Z,99.00
2019-02-07T05:36:14.326Z,98.80
2019-02-07T05:38:54.257Z,98.60
2019-02-07T05:41:43.136Z,98.40
2019-02-07T05:44:43.615Z,98.70
2019-02-07T05:47:37.868Z,98.60
2019-02-07T05:50:22.540Z,98.70
2019-02-07T05:53:17.443Z,98.30
2019-02-07T05:56:11.623Z,98.10
2019-02-07T05:58:52.027Z,98.00
2019-02-07T06:01:58.487Z,98.10
2019-02-07T06:04:45.319Z,98.30
2019-02-07T06:07:32.349Z,97.70
2019-02-07T06:10:19.399Z,98.00
2019-02-07T06:13:10.671Z,98.50
2019-02-07T06:15:57.595Z,98.50
2019-02-07T06:18:40.174Z,98.80
2019-02-07T06:21:28.235Z,99.10
2019-02-07T06:24:20.876Z,99.30
2019-02-07T06:27:08.043Z,99.30
2019-02-07T06:29:48.431Z,99.40
2019-02-07T06:32:38.451Z,99.60
2019-02-07T06:35:32.291Z,99.10
2019-02-07T06:38:32.767Z,99.60
2019-02-07T06:41:16.000Z,98.90
2019-02-07T06:44:04.259Z,99.10
2019-02-07T06:47:13.448Z,99.00
2019-02-07T06:50:03.383Z,99.20
2019-02-07T06:52:56.909Z,99.40
2019-02-07T06:55:48.005Z,99.50
2019-02-07T06:58:42.607Z,99.50
2019-02-07T07:01:43.147Z,99.40
2019-02-07T07:04:24.907Z,99.60
2019-02-07T07:07:05.498Z,99.50
2019-02-07T07:10:02.699Z,99.50
2019-02-07T07:13:06.374Z,99.60
2019-02-07T07:16:00.298Z,99.80
2019-02-07T07:18:47.036Z,99.80
2019-02-07T07:21:35.323Z,99.70
2019-02-07T07:24:22.431Z,99.70
2019-02-07T07:27:10.012Z,99.80
2019-02-07T07:30:05.834Z,99.80
2019-02-07T07:32:57.774Z,99.70
2019-02-07T07:35:43.882Z,99.60
2019-02-07T07:38:24.462Z,99.60
2019-02-07T07:41:20.062Z,99.70
2019-02-07T07:44:08.416Z,99.60
2019-02-07T07:46:55.699Z,99.40
2019-02-07T07:49:43.977Z,99.80
2019-02-07T07:52:31.324Z,99.90
2019-02-07T07:55:25.613Z,99.90
2019-02-07T07:58:07.438Z,99.90
2019-02-07T08:00:54.407Z,99.90
2019-02-07T08:03:41.601Z,99.90
2019-02-07T08:06:36.564Z,99.90
2019-02-07T08:09:28.343Z,99.90
2019-02-07T08:12:25.734Z,99.90
2019-02-07T08:15:07.783Z,99.90
2019-02-07T08:17:55.140Z,99.90
2019-02-07T08:20:43.426Z,99.90
2019-02-07T08:23:18.387Z,99.90
2019-02-07T08:26:07.663Z,99.90
2019-02-07T08:28:56.812Z,99.90
2019-02-07T08:31:54.997Z,99.90
2019-02-07T08:34:58.719Z,99.90
2019-02-07T08:37:49.914Z,99.90
2019-02-07T08:40:25.671Z,99.90
2019-02-07T08:43:09.991Z,99.90
2019-02-07T08:45:47.511Z,99.90
2019-02-07T08:48:25.473Z,99.90
2019-02-07T08:51:15.842Z,99.90
2019-02-07T08:54:16.054Z,99.90
2019-02-07T08:57:15.003Z,99.90
2019-02-07T09:00:09.457Z,99.90
2019-02-07T09:02:59.987Z,99.90
2019-02-07T09:06:00.352Z,99.90
2019-02-07T09:08:51.663Z,99.90
2019-02-07T09:11:39.027Z,99.90
2019-02-07T09:14:26.087Z,99.90
2019-02-07T09:17:02.653Z,99.90
2019-02-07T09:19:49.573Z,99.90
2019-02-07T09:22:50.019Z,99.90
2019-02-07T09:25:44.666Z,99.90
2019-02-07T09:28:31.717Z,99.90
2019-02-07T09:31:33.979Z,99.90
2019-02-07T09:34:34.443Z,99.90
2019-02-07T09:37:26.011Z,99.90
2019-02-07T09:40:07.510Z,99.90
2019-02-07T09:42:51.217Z,99.90
2019-02-07T09:45:34.917Z,99.90
2019-02-07T09:48:22.498Z,99.90
2019-02-07T09:51:10.853Z,99.90
2019-02-07T09:53:58.100Z,99.90
2019-02-07T09:57:04.875Z,99.90
2019-02-07T10:00:00.667Z,99.90
2019-02-07T10:02:53.927Z,99.90
2019-02-07T10:05:33.069Z,99.90
2019-02-07T10:08:15.047Z,99.90
2019-02-07T10:11:07.814Z,99.90
2019-02-07T10:13:48.869Z,99.90
2019-02-07T10:16:36.087Z,99.90
2019-02-07T10:19:23.506Z,99.90
2019-02-07T10:22:10.034Z,99.90
2019-02-07T10:25:04.247Z,99.90
2019-02-07T10:27:55.409Z,99.90
2019-02-07T10:30:46.361Z,99.90
2019-02-07T10:33:47.291Z,99.90
2019-02-07T10:36:29.064Z,99.90
2019-02-07T10:39:11.036Z,99.90
2019-02-07T10:42:17.619Z,99.90
2019-02-07T10:45:07.499Z,99.90
2019-02-07T10:47:54.472Z,99.90
2019-02-07T10:50:47.669Z,99.90
2019-02-07T10:53:34.659Z,99.90
2019-02-07T10:56:16.168Z,99.90
2019-02-07T10:59:16.540Z,99.90
2019-02-07T11:02:16.949Z,99.90
2019-02-07T11:05:05.678Z,99.90
2019-02-07T11:07:52.835Z,99.90
2019-02-07T11:10:43.937Z,99.90
2019-02-07T11:13:30.854Z,99.90
2019-02-07T11:16:17.980Z,99.90
2019-02-07T11:19:08.655Z,99.90
2019-02-07T11:21:45.923Z,99.90
2019-02-07T11:24:49.335Z,99.90
2019-02-07T11:27:43.230Z,99.90
2019-02-07T11:30:37.043Z,99.90
2019-02-07T11:33:13.863Z,99.90
2019-02-07T11:36:07.867Z,99.90
2019-02-07T11:38:54.763Z,99.90
2019-02-07T11:41:58.370Z,99.90
2019-02-07T11:44:46.668Z,99.90
2019-02-07T11:47:31.196Z,99.90
2019-02-07T11:50:25.511Z,99.90
2019-02-07T11:53:12.397Z,99.90
2019-02-07T11:56:09.733Z,99.90
2019-02-07T11:59:00.755Z,99.90
2019-02-07T12:01:47.868Z,99.90
2019-02-07T12:04:42.225Z,99.90
2019-02-07T12:07:30.512Z,99.90
2019-02-07T12:10:17.679Z,99.90
2019-02-07T12:13:04.926Z,99.90
2019-02-07T12:15:45.730Z,99.90
2019-02-07T12:18:24.428Z,99.90
2019-02-07T12:21:07.578Z,99.90
2019-02-07T12:23:54.383Z,99.90
2019-02-07T12:26:49.084Z,99.90
2019-02-07T12:29:37.510Z,99.90
2019-02-07T12:32:25.888Z,99.90
2019-02-07T12:35:34.086Z,99.90
2019-02-07T12:38:25.346Z,99.90
2019-02-07T12:41:19.905Z,99.90
2019-02-07T12:44:08.106Z,99.90
2019-02-07T12:46:56.453Z,99.90
2019-02-07T12:49:49.546Z,99.90
2019-02-07T12:52:36.457Z,99.90
2019-02-07T12:55:14.359Z,99.90
2019-02-07T12:57:57.962Z,99.90
2019-02-07T13:00:45.401Z,99.90
2019-02-07T13:03:33.672Z,99.90
2019-02-07T13:06:31.774Z,99.90
2019-02-07T13:09:15.339Z,99.90
2019-02-07T13:12:04.505Z,99.90
2019-02-07T13:14:42.037Z,99.90
2019-02-07T13:17:38.127Z,99.90
2019-02-07T13:20:31.918Z,99.90
2019-02-07T13:23:23.812Z,99.90
2019-02-07T13:26:13.127Z,99.90
2019-02-07T13:28:59.582Z,99.90
2019-02-07T13:31:40.707Z,99.90
2019-02-07T13:34:27.652Z,99.90
2019-02-07T13:37:18.975Z,99.90
2019-02-07T13:40:05.784Z,99.90
2019-02-07T13:42:55.609Z,99.90
2019-02-07T13:45:59.903Z,99.90
2019-02-07T13:48:48.783Z,99.90
2019-02-07T13:51:37.031Z,99.90
2019-02-07T13:54:25.259Z,99.90
2019-02-07T13:57:23.196Z,99.90
2019-02-07T14:00:10.140Z,99.90
2019-02-07T14:03:04.575Z,99.90
2019-02-07T14:05:55.147Z,99.90
2019-02-07T14:08:42.385Z,99.90
2019-02-07T14:11:26.401Z,99.90
2019-02-07T14:14:17.654Z,99.90
2019-02-07T14:16:56.337Z,99.90
2019-02-07T14:19:44.617Z,99.90
2019-02-07T14:22:40.301Z,99.90
2019-02-07T14:25:26.309Z,99.90
2019-02-07T14:28:24.037Z,99.90
2019-02-07T14:31:24.501Z,99.90
2019-02-07T14:34:11.959Z,99.90
2019-02-07T14:37:15.291Z,99.90
2019-02-07T14:40:21.607Z,99.90
2019-02-07T14:43:03.009Z,99.90
2019-02-07T14:45:54.064Z,99.90
2019-02-07T14:48:24.900Z,99.90
2019-02-07T14:50:55.023Z,99.90
2019-02-07T14:53:24.856Z,99.90
2019-02-07T14:55:54.492Z,99.90
2019-02-07T14:58:24.026Z,99.90
2019-02-07T15:00:53.575Z,99.90
2019-02-07T15:03:23.039Z,99.90
2019-02-07T15:05:52.690Z,99.90
2019-02-07T15:08:22.146Z,99.90
2019-02-07T15:10:51.462Z,99.90
2019-02-07T15:13:20.791Z,99.90
2019-02-07T15:15:50.040Z,99.90
2019-02-07T15:18:19.385Z,99.90
2019-02-07T15:20:49.187Z,99.90
2019-02-07T15:23:18.478Z,99.90
2019-02-07T15:25:47.787Z,99.90
2019-02-07T15:28:17.438Z,99.90
2019-02-07T15:30:46.754Z,99.90
2019-02-07T15:33:16.201Z,99.90
2019-02-07T15:35:47.948Z,99.90
2019-02-07T15:38:17.327Z,99.90
2019-02-07T15:40:46.975Z,99.90
2019-02-07T15:43:16.486Z,99.90
2019-02-07T15:45:45.745Z,99.90
2019-02-07T15:48:15.157Z,99.90
2019-02-07T15:50:44.518Z,99.90
2019-02-07T15:53:13.944Z,99.90
2019-02-07T15:55:43.363Z,99.90
2019-02-07T15:58:12.677Z,99.90
2019-02-07T16:00:50.651Z,99.90
2019-02-07T16:03:38.946Z,99.90
2019-02-07T16:06:08.271Z,99.90
2019-02-07T16:08:37.712Z,99.90
2019-02-07T16:11:07.159Z,99.90
2019-02-07T16:13:36.772Z,99.90
2019-02-07T16:16:06.117Z,99.90
2019-02-07T16:18:35.446Z,99.90
2019-02-07T16:21:05.081Z,99.90
2019-02-07T16:23:34.412Z,99.90
2019-02-07T16:26:03.747Z,99.90
2019-02-07T16:28:33.178Z,99.90
2019-02-07T16:31:02.618Z,99.90
2019-02-07T16:33:31.955Z,99.90
2019-02-07T16:36:01.295Z,99.90
2019-02-07T16:38:30.624Z,99.90
2019-02-07T16:41:00.127Z,99.90
2019-02-07T16:43:29.447Z,99.90
2019-02-07T16:45:58.776Z,99.90
2019-02-07T16:48:28.090Z,99.90
2019-02-07T16:51:00.324Z,99.90
2019-02-07T16:53:28.436Z,99.90
2019-02-07T16:55:57.788Z,99.90
2019-02-07T16:58:27.117Z,99.90
2019-02-07T17:00:56.473Z,99.90
2019-02-07T17:03:25.777Z,99.90
2019-02-07T17:05:55.044Z,99.90
2019-02-07T17:08:24.629Z,99.90
2019-02-07T17:10:53.987Z,99.90
2019-02-07T17:13:23.303Z,99.90
2019-02-07T17:15:52.562Z,99.90
2019-02-07T17:18:21.836Z,99.90
2019-02-07T17:20:51.210Z,99.90
2019-02-07T17:23:20.557Z,99.90
2019-02-07T17:25:49.983Z,99.90
2019-02-07T17:28:19.306Z,99.90
2019-02-07T17:30:48.570Z,99.90
2019-02-07T17:33:17.895Z,99.90
2019-02-07T17:35:49.890Z,99.90
2019-02-07T17:38:18.070Z,99.90
2019-02-07T17:40:47.369Z,99.90
2019-02-07T17:43:16.958Z,99.90
2019-02-07T17:45:46.426Z,99.90
2019-02-07T17:48:15.731Z,99.90
2019-02-07T17:50:45.053Z,99.90
2019-02-07T17:53:14.443Z,99.90
2019-02-07T17:55:43.823Z,99.90
2019-02-07T17:58:13.177Z,99.90
2019-02-07T18:01:05.187Z,99.90
2019-02-07T18:03:34.992Z,99.90
2019-02-07T18:06:05.273Z,99.90
2019-02-07T18:08:34.754Z,99.90
2019-02-07T18:11:04.418Z,99.90
2019-02-07T18:13:33.910Z,99.90
2019-02-07T18:16:03.273Z,99.90
2019-02-07T18:18:32.618Z,99.90
2019-02-07T18:21:02.469Z,99.90
2019-02-07T18:23:32.245Z,99.90
2019-02-07T18:26:01.558Z,99.90
2019-02-07T18:28:30.835Z,99.90
2019-02-07T18:31:00.183Z,99.90
2019-02-07T18:33:29.518Z,99.90
2019-02-07T18:35:58.813Z,99.90
2019-02-07T18:38:28.558Z,99.90
2019-02-07T18:40:57.871Z,99.90
2019-02-07T18:43:27.257Z,99.90
2019-02-07T18:45:56.579Z,99.90
2019-02-07T18:48:25.817Z,99.90
2019-02-07T18:50:55.168Z,99.90
2019-02-07T18:53:24.724Z,99.90
2019-02-07T18:55:56.446Z,99.90
2019-02-07T18:58:25.045Z,99.90
2019-02-07T19:00:54.483Z,99.90
2019-02-07T19:03:23.801Z,99.90
2019-02-07T19:05:53.140Z,99.90
2019-02-07T19:08:22.859Z,99.90
2019-02-07T19:10:52.201Z,99.90
2019-02-07T19:13:21.523Z,99.90
2019-02-07T19:15:57.507Z,99.90
2019-02-07T19:18:26.815Z,99.90
2019-02-07T19:20:56.151Z,99.90
2019-02-07T19:23:25.831Z,99.90
2019-02-07T19:25:55.166Z,99.90
2019-02-07T19:28:24.508Z,99.90
2019-02-07T19:30:53.882Z,99.90
2019-02-07T19:33:23.143Z,99.90
2019-02-07T19:35:52.489Z,99.90
2019-02-07T19:38:22.164Z,99.90
2019-02-07T19:40:51.529Z,99.90
2019-02-07T19:43:21.722Z,99.90
2019-02-07T19:45:50.983Z,99.90
2019-02-07T19:48:20.286Z,99.90
2019-02-07T19:50:49.752Z,99.90
2019-02-07T19:53:19.488Z,99.90
2019-02-07T19:55:48.834Z,99.90
2019-02-07T19:58:18.072Z,99.90
2019-02-07T20:00:47.406Z,99.90
2019-02-07T20:03:16.714Z,99.90
2019-02-07T20:05:45.991Z,99.90
2019-02-07T20:08:15.726Z,99.90
2019-02-07T20:10:45.084Z,99.90
2019-02-07T20:13:14.412Z,99.90
2019-02-07T20:15:43.967Z,99.90
2019-02-07T20:18:13.401Z,99.90
2019-02-07T20:20:42.671Z,99.90
2019-02-07T20:23:12.033Z,99.90
2019-02-07T20:25:41.676Z,99.90
2019-02-07T20:28:10.995Z,99.90
2019-02-07T20:30:41.878Z,99.90
2019-02-07T20:33:11.458Z,99.90
2019-02-07T20:35:40.883Z,99.90
2019-02-07T20:38:11.203Z,99.90
2019-02-07T20:40:40.529Z,99.90
2019-02-07T20:43:09.900Z,99.90
2019-02-07T20:45:39.229Z,99.90
2019-02-07T20:48:09.206Z,99.90
2019-02-07T20:50:38.504Z,99.90
2019-02-07T20:53:08.091Z,99.90
2019-02-07T20:55:37.417Z,99.90
2019-02-07T20:58:07.303Z,99.90
2019-02-07T21:00:37.715Z,99.90
2019-02-07T21:03:07.219Z,99.90
2019-02-07T21:05:36.742Z,99.90
2019-02-07T21:08:06.167Z,99.90
2019-02-07T21:10:35.670Z,99.90
2019-02-07T21:13:05.743Z,99.90
2019-02-07T21:15:35.069Z,99.90
2019-02-07T21:18:04.825Z,99.90
2019-02-07T21:20:34.138Z,99.90
2019-02-07T21:23:03.480Z,99.90
2019-02-07T21:25:44.669Z,99.90
2019-02-07T21:28:14.104Z,99.90
2019-02-07T21:30:43.631Z,99.90
2019-02-07T21:33:13.028Z,99.90
2019-02-07T21:35:42.405Z,99.90
2019-02-07T21:38:11.735Z,99.90
2019-02-07T21:40:41.065Z,99.90
2019-02-07T21:43:10.811Z,99.90
2019-02-07T21:45:40.140Z,99.90
2019-02-07T21:48:10.848Z,99.90
2019-02-07T21:50:40.210Z,99.90
2019-02-07T21:53:09.451Z,99.90
2019-02-07T21:55:38.714Z,99.90
2019-02-07T21:58:08.764Z,99.90
2019-02-07T22:00:40.075Z,99.90
2019-02-07T22:03:11.151Z,99.90
2019-02-07T22:05:40.511Z,99.90
2019-02-07T22:08:09.953Z,99.90
2019-02-07T22:10:39.182Z,99.90
2019-02-07T22:13:08.727Z,99.90
2019-02-07T22:15:38.018Z,99.90
2019-02-07T22:18:08.878Z,99.90
2019-02-07T22:20:38.183Z,99.90
2019-02-07T22:23:07.551Z,99.90
2019-02-07T22:25:36.773Z,99.90
2019-02-07T22:28:07.103Z,99.90
2019-02-07T22:30:36.669Z,99.90
2019-02-07T22:33:06.557Z,99.90
2019-02-07T22:35:35.783Z,99.90
2019-02-07T22:38:06.373Z,99.90
2019-02-07T22:40:35.652Z,99.90
2019-02-07T22:43:05.277Z,99.90
2019-02-07T22:45:34.514Z,99.90
2019-02-07T22:48:03.846Z,99.90
2019-02-07T22:50:33.097Z,99.90
2019-02-07T22:53:02.332Z,99.90
2019-02-07T22:55:31.683Z,99.90
2019-02-07T22:58:00.939Z,99.90
2019-02-07T23:01:26.670Z,99.90
2019-02-07T23:03:58.101Z,99.90
2019-02-07T23:06:27.416Z,99.90
2019-02-07T23:08:56.815Z,99.90
2019-02-07T23:11:26.434Z,99.90
2019-02-07T23:13:55.722Z,99.90
2019-02-07T23:16:25.150Z,99.90
2019-02-07T23:18:54.965Z,99.90
2019-02-07T23:21:24.408Z,99.90
2019-02-07T23:23:53.714Z,99.90
2019-02-07T23:26:23.041Z,99.90
2019-02-07T23:28:52.289Z,99.90
2019-02-07T23:31:21.604Z,99.90
2019-02-07T23:33:50.918Z,99.90
2019-02-07T23:36:20.264Z,99.90
2019-02-07T23:38:49.573Z,99.90
2019-02-07T23:41:18.884Z,99.90
2019-02-07T23:43:48.187Z,99.90
2019-02-07T23:46:17.548Z,99.90
2019-02-07T23:48:47.151Z,99.90
2019-02-07T23:51:16.478Z,99.90
2019-02-07T23:53:45.790Z,99.90
2019-02-07T23:56:15.143Z,99.90
2019-02-07T23:58:44.504Z,99.90
